Wauneta, Nebraska
Current Conditions -  °F | °C
As of 5:53 AM on Thursday 30 Oct 2014 (Local Time) from KIML Reporting Station
Clear Clear  
Wind Chill: 33°   Ceiling: Unl
Heat Index: 40°   Visibility: 10mi
Dew Point: 25°   Wind: 13mph
Humidity: 55%   Direction: 300°WNW
Pressure: 30.23"   Gusts: NA
Location:  40.42°N, 101.37°W
Report Text: KIML 301153Z AUTO 30011KT 10SM CLR 04/M04 A3023 RMK AO2 SLP235 T00441039 10067 20039 53016
Loading
Personal Weather Stations






























Interactive Weather Map
Tropical Storm Tracking
New forecast layout! Learn more

10-Day Weather Forecast

Advertisements
Track Severe Weather on mobile